Time;durP1;ratioP1;P1;durP2;ratioP2;P2;SDS_P1;SDS_P2;PMS_P1;PMS_P2;Temp;Humidity;BMP_temperature;BMP_pressure;BME280_temperature;BME280_humidity;BME280_pressure;Samples;Min_cycle;Max_cycle;Signal;HPM_P1;HPM_P2
2022/08/05 00:00:06;;;;;;;;;5.00;3.75;;;;;;;;4967634;28;45529;-64
2022/08/05 00:02:31;;;;;;;;;3.75;3.75;;;;;;;;4955388;28;45577;-62
2022/08/05 00:04:56;;;;;;;;;4.00;4.00;;;;;;;;4954699;28;46237;-64
2022/08/05 00:07:22;;;;;;;;;3.75;3.75;;;;;;;;4955995;28;45753;-64
2022/08/05 00:09:47;;;;;;;;;4.00;4.00;;;;;;;;4955953;28;45438;-62
2022/08/05 00:12:12;;;;;;;;;4.00;4.00;;;;;;;;4956235;28;45413;-64
2022/08/05 00:14:37;;;;;;;;;3.00;3.00;;;;;;;;4956243;28;46190;-64
2022/08/05 00:17:03;;;;;;;;;3.75;3.75;;;;;;;;4956005;28;45502;-63
2022/08/05 00:19:28;;;;;;;;;4.00;4.00;;;;;;;;4972627;28;45409;-64
2022/08/05 00:21:53;;;;;;;;;5.00;3.50;;;;;;;;4975644;28;45489;-64
2022/08/05 00:24:18;;;;;;;;;4.00;4.00;;;;;;;;4974027;28;45543;-64
2022/08/05 00:26:43;;;;;;;;;4.25;4.25;;;;;;;;4974160;28;45458;-63
2022/08/05 00:29:09;;;;;;;;;6.00;5.00;;;;;;;;4958970;28;45414;-65
2022/08/05 00:31:34;;;;;;;;;5.25;5.25;;;;;;;;4955711;28;45313;-63
2022/08/05 00:33:59;;;;;;;;;4.00;4.00;;;;;;;;4954899;28;45385;-65
2022/08/05 00:36:24;;;;;;;;;3.75;3.75;;;;;;;;4955136;28;45505;-65
2022/08/05 00:38:50;;;;;;;;;4.75;3.00;;;;;;;;4954659;28;45453;-62
2022/08/05 00:41:25;;;;;;;;;4.50;4.50;;;;;;;;4955901;28;45355;-65
2022/08/05 00:43:50;;;;;;;;;3.50;3.50;;;;;;;;4955890;28;45572;-62
2022/08/05 00:46:16;;;;;;;;;3.00;3.00;;;;;;;;4955898;28;45391;-64
2022/08/05 00:48:41;;;;;;;;;4.00;4.00;;;;;;;;4955850;28;45415;-62
2022/08/05 00:51:06;;;;;;;;;3.00;3.00;;;;;;;;4955832;28;45563;-63
2022/08/05 00:53:31;;;;;;;;;5.00;3.50;;;;;;;;4955677;28;46334;-64
2022/08/05 00:55:56;;;;;;;;;3.75;3.75;;;;;;;;4955927;28;45482;-62
2022/08/05 00:58:22;;;;;;;;;5.00;5.00;;;;;;;;4973388;28;45516;-63
2022/08/05 01:00:47;;;;;;;;;4.00;4.00;;;;;;;;4973731;28;45538;-62
2022/08/05 01:03:12;;;;;;;;;5.00;3.00;;;;;;;;4974605;28;45495;-62
2022/08/05 01:05:38;;;;;;;;;3.00;3.00;;;;;;;;4974400;28;45544;-63
2022/08/05 01:08:04;;;;;;;;;4.00;4.00;;;;;;;;4974780;28;45445;-63
2022/08/05 01:10:34;;;;;;;;;3.50;2.75;;;;;;;;4966721;28;45482;-62
2022/08/05 01:13:05;;;;;;;;;6.50;3.25;;;;;;;;4955830;28;45445;-64
2022/08/05 01:15:33;;;;;;;;;4.00;3.25;;;;;;;;4955058;28;45377;-62
2022/08/05 01:18:03;;;;;;;;;4.00;4.00;;;;;;;;4955062;28;45412;-63
2022/08/05 01:20:34;;;;;;;;;3.00;3.00;;;;;;;;4955010;28;45487;-63
2022/08/05 01:23:14;;;;;;;;;3.00;3.00;;;;;;;;4962587;28;46441;-65
2022/08/05 01:26:00;;;;;;;;;6.75;3.25;;;;;;;;4962532;28;45532;-62
2022/08/05 01:28:31;;;;;;;;;3.00;3.00;;;;;;;;4961903;28;45480;-64
2022/08/05 01:31:17;;;;;;;;;2.75;2.75;;;;;;;;4974638;28;45664;-64
2022/08/05 01:33:57;;;;;;;;;2.00;2.00;;;;;;;;4963377;28;46743;-63
2022/08/05 01:36:25;;;;;;;;;3.75;3.50;;;;;;;;4974436;28;45485;-62
2022/08/05 01:38:51;;;;;;;;;4.50;4.00;;;;;;;;4973763;28;45524;-64
2022/08/05 01:41:19;;;;;;;;;3.25;3.25;;;;;;;;4974161;28;45340;-65
2022/08/05 01:43:45;;;;;;;;;4.00;4.00;;;;;;;;4974222;28;45402;-62
2022/08/05 01:46:10;;;;;;;;;3.00;3.00;;;;;;;;4974357;28;45507;-64
2022/08/05 01:48:37;;;;;;;;;4.00;4.00;;;;;;;;4974351;28;45461;-64
2022/08/05 01:51:04;;;;;;;;;5.00;3.00;;;;;;;;4974209;28;45361;-64
2022/08/05 01:53:30;;;;;;;;;3.00;3.00;;;;;;;;4971281;28;45439;-64
2022/08/05 01:55:58;;;;;;;;;5.00;3.25;;;;;;;;4974417;28;45458;-63
2022/08/05 01:58:24;;;;;;;;;2.00;2.00;;;;;;;;4974953;28;45528;-63
2022/08/05 02:00:50;;;;;;;;;3.25;3.25;;;;;;;;4974324;28;45509;-63
2022/08/05 02:03:16;;;;;;;;;5.75;5.00;;;;;;;;4973854;28;45619;-64
2022/08/05 02:05:42;;;;;;;;;3.00;3.00;;;;;;;;4974355;28;45440;-63
2022/08/05 02:08:07;;;;;;;;;4.00;2.50;;;;;;;;4974568;28;45394;-63
2022/08/05 02:10:40;;;;;;;;;2.25;2.25;;;;;;;;4974436;28;45417;-63
2022/08/05 02:13:16;;;;;;;;;2.75;2.75;;;;;;;;4964631;28;46844;-63
2022/08/05 02:15:48;;;;;;;;;3.00;3.00;;;;;;;;4954649;28;45434;-64
2022/08/05 02:18:16;;;;;;;;;3.25;3.25;;;;;;;;4952343;28;45471;-64
2022/08/05 02:20:46;;;;;;;;;3.50;3.50;;;;;;;;4954623;28;45591;-63
2022/08/05 02:23:12;;;;;;;;;5.00;4.25;;;;;;;;4973482;28;45457;-63
2022/08/05 02:25:39;;;;;;;;;2.50;2.50;;;;;;;;4962459;28;45470;-63
2022/08/05 02:28:06;;;;;;;;;5.50;4.00;;;;;;;;4954516;28;45475;-63
2022/08/05 02:30:36;;;;;;;;;5.25;4.00;;;;;;;;4954770;28;45493;-63
2022/08/05 02:33:03;;;;;;;;;3.75;2.75;;;;;;;;4954411;28;46109;-63
2022/08/05 02:35:32;;;;;;;;;4.00;4.00;;;;;;;;4954628;28;45525;-62
2022/08/05 02:37:58;;;;;;;;;3.50;3.00;;;;;;;;4954534;28;45408;-63
2022/08/05 02:40:24;;;;;;;;;4.25;4.25;;;;;;;;4963527;28;45365;-63
2022/08/05 02:42:51;;;;;;;;;5.75;5.00;;;;;;;;4973480;28;46129;-63
2022/08/05 02:45:17;;;;;;;;;5.25;4.25;;;;;;;;4973770;28;45387;-62
2022/08/05 02:47:43;;;;;;;;;3.00;3.00;;;;;;;;4973781;28;45360;-63
2022/08/05 02:50:12;;;;;;;;;5.00;5.00;;;;;;;;4962162;28;45566;-63
2022/08/05 02:52:37;;;;;;;;;4.50;4.50;;;;;;;;4954057;28;46180;-62
2022/08/05 02:55:04;;;;;;;;;5.25;5.25;;;;;;;;4954208;28;45372;-63
2022/08/05 02:57:30;;;;;;;;;5.25;4.75;;;;;;;;4954305;28;45399;-63
2022/08/05 02:59:56;;;;;;;;;4.25;4.00;;;;;;;;4954709;28;45568;-63
2022/08/05 03:02:25;;;;;;;;;4.50;4.50;;;;;;;;4953942;28;46136;-63
2022/08/05 03:04:53;;;;;;;;;4.00;4.00;;;;;;;;4953066;27;45410;-63
2022/08/05 03:07:18;;;;;;;;;3.75;3.75;;;;;;;;4953727;28;45463;-63
2022/08/05 03:09:44;;;;;;;;;3.00;3.00;;;;;;;;4954201;28;45570;-63
2022/08/05 03:12:09;;;;;;;;;4.50;4.00;;;;;;;;4953713;28;46190;-63
2022/08/05 03:14:34;;;;;;;;;2.75;2.50;;;;;;;;4953877;28;45428;-64
2022/08/05 03:17:00;;;;;;;;;6.25;4.25;;;;;;;;4953775;28;45340;-62
2022/08/05 03:19:25;;;;;;;;;3.00;2.50;;;;;;;;4954033;28;45388;-61
2022/08/05 03:21:50;;;;;;;;;14.00;13.00;;;;;;;;4952720;28;45409;-61
2022/08/05 03:24:17;;;;;;;;;3.50;3.50;;;;;;;;4953725;28;45399;-61
2022/08/05 03:26:42;;;;;;;;;3.50;3.50;;;;;;;;4971908;28;45453;-61
2022/08/05 03:29:07;;;;;;;;;4.50;3.00;;;;;;;;4974927;28;45540;-61
2022/08/05 03:31:32;;;;;;;;;3.50;3.50;;;;;;;;4976011;28;46049;-62
2022/08/05 03:33:58;;;;;;;;;4.00;4.00;;;;;;;;4976052;28;45485;-64
2022/08/05 03:36:24;;;;;;;;;5.50;5.00;;;;;;;;4974596;28;45997;-61
2022/08/05 03:38:49;;;;;;;;;3.00;3.00;;;;;;;;4974389;28;45374;-61
2022/08/05 03:41:14;;;;;;;;;4.25;3.00;;;;;;;;4975731;28;45512;-61
2022/08/05 03:43:40;;;;;;;;;3.00;3.00;;;;;;;;4976013;28;45422;-62
2022/08/05 03:46:05;;;;;;;;;5.00;5.00;;;;;;;;4976331;28;45489;-62
2022/08/05 03:48:30;;;;;;;;;3.50;3.50;;;;;;;;4976095;28;45369;-61
2022/08/05 03:50:55;;;;;;;;;4.00;4.00;;;;;;;;4975866;28;45486;-64
2022/08/05 03:53:27;;;;;;;;;6.00;4.00;;;;;;;;4972988;28;45465;-62
2022/08/05 03:56:04;;;;;;;;;5.00;5.00;;;;;;;;4975733;28;45512;-61
2022/08/05 03:58:32;;;;;;;;;3.75;3.50;;;;;;;;4976370;28;45575;-61
2022/08/05 04:00:58;;;;;;;;;3.25;3.25;;;;;;;;4975706;28;47160;-61
2022/08/05 04:03:25;;;;;;;;;6.50;5.25;;;;;;;;4975560;28;45492;-61
2022/08/05 04:05:50;;;;;;;;;7.00;7.00;;;;;;;;4973018;28;45450;-61
2022/08/05 04:08:16;;;;;;;;;5.25;5.25;;;;;;;;4975937;28;45390;-61
2022/08/05 04:10:43;;;;;;;;;5.00;5.00;;;;;;;;4975610;28;46136;-61
2022/08/05 04:13:09;;;;;;;;;5.75;3.00;;;;;;;;4975594;28;45453;-62
2022/08/05 04:15:34;;;;;;;;;5.75;5.75;;;;;;;;4976013;28;45738;-61
2022/08/05 04:18:03;;;;;;;;;5.75;5.00;;;;;;;;4965225;28;45538;-61
2022/08/05 04:20:28;;;;;;;;;4.00;3.75;;;;;;;;4955847;28;46051;-62
2022/08/05 04:22:53;;;;;;;;;3.25;3.25;;;;;;;;4956092;28;45370;-62
2022/08/05 04:25:19;;;;;;;;;5.00;5.00;;;;;;;;4962913;28;45402;-62
2022/08/05 04:27:44;;;;;;;;;3.25;3.25;;;;;;;;4975663;28;45540;-62
2022/08/05 04:30:09;;;;;;;;;4.00;4.00;;;;;;;;4975009;28;46459;-62
2022/08/05 04:32:35;;;;;;;;;6.00;5.75;;;;;;;;4975433;28;45367;-62
2022/08/05 04:35:00;;;;;;;;;4.75;4.75;;;;;;;;4964136;28;45411;-62
2022/08/05 04:37:25;;;;;;;;;5.75;5.75;;;;;;;;4968967;28;45345;-62
2022/08/05 04:39:51;;;;;;;;;5.25;5.25;;;;;;;;4972823;28;45454;-62
2022/08/05 04:42:16;;;;;;;;;5.00;5.00;;;;;;;;4970868;28;45386;-63
2022/08/05 04:44:41;;;;;;;;;5.75;5.00;;;;;;;;4955753;28;45386;-63
2022/08/05 04:47:06;;;;;;;;;6.00;6.00;;;;;;;;4955023;28;45675;-63
2022/08/05 04:49:32;;;;;;;;;6.75;6.75;;;;;;;;4955639;28;45423;-62
2022/08/05 04:51:57;;;;;;;;;5.50;5.50;;;;;;;;4954919;28;45352;-63
2022/08/05 04:54:25;;;;;;;;;7.50;7.50;;;;;;;;4956183;28;45427;-62
2022/08/05 04:56:51;;;;;;;;;5.25;3.75;;;;;;;;4954498;28;45664;-62
2022/08/05 04:59:16;;;;;;;;;6.75;6.75;;;;;;;;4956107;28;45516;-62
2022/08/05 05:01:41;;;;;;;;;6.00;6.00;;;;;;;;4967895;28;45491;-62
2022/08/05 05:04:06;;;;;;;;;6.00;6.00;;;;;;;;4954844;28;45391;-62
2022/08/05 05:06:32;;;;;;;;;6.25;6.25;;;;;;;;4954994;28;45486;-62
2022/08/05 05:08:57;;;;;;;;;6.00;6.00;;;;;;;;4955145;28;46051;-63
2022/08/05 05:11:22;;;;;;;;;5.50;5.00;;;;;;;;4955430;28;45406;-63
2022/08/05 05:13:47;;;;;;;;;5.50;4.75;;;;;;;;4955598;28;45423;-62
2022/08/05 05:16:13;;;;;;;;;4.00;4.00;;;;;;;;4955291;28;45269;-62
2022/08/05 05:18:38;;;;;;;;;5.00;5.00;;;;;;;;4972960;28;45338;-62
2022/08/05 05:21:04;;;;;;;;;5.50;5.00;;;;;;;;4974681;28;45526;-62
2022/08/05 05:23:29;;;;;;;;;7.75;6.75;;;;;;;;4974874;28;45361;-62
2022/08/05 05:25:54;;;;;;;;;5.50;5.50;;;;;;;;4972980;28;45366;-62
2022/08/05 05:28:19;;;;;;;;;7.00;6.00;;;;;;;;4974465;28;45610;-63
2022/08/05 05:30:45;;;;;;;;;5.00;5.00;;;;;;;;4964868;28;45354;-62
2022/08/05 05:33:10;;;;;;;;;6.00;6.00;;;;;;;;4954236;28;45423;-62
2022/08/05 05:35:35;;;;;;;;;5.50;5.50;;;;;;;;4955223;28;45636;-62
2022/08/05 05:38:05;;;;;;;;;5.00;5.00;;;;;;;;4955713;28;46129;-62
2022/08/05 05:40:31;;;;;;;;;4.75;4.75;;;;;;;;4974380;28;45562;-62
2022/08/05 05:42:56;;;;;;;;;5.25;4.50;;;;;;;;5007865;28;45559;-62
2022/08/05 05:45:21;;;;;;;;;3.25;3.25;;;;;;;;4977870;28;45436;-62
2022/08/05 05:47:47;;;;;;;;;6.00;4.50;;;;;;;;4974224;28;46050;-62
2022/08/05 05:50:16;;;;;;;;;6.00;6.00;;;;;;;;4974276;28;45403;-63
2022/08/05 05:52:41;;;;;;;;;5.50;5.50;;;;;;;;4974449;28;45538;-63
2022/08/05 05:55:08;;;;;;;;;7.25;6.00;;;;;;;;4974620;28;45320;-62
2022/08/05 05:57:34;;;;;;;;;4.25;4.25;;;;;;;;4973219;28;46199;-62
2022/08/05 05:59:59;;;;;;;;;5.50;4.00;;;;;;;;4974835;28;45527;-63
2022/08/05 06:02:24;;;;;;;;;5.50;3.50;;;;;;;;4973712;28;45457;-62
2022/08/05 06:04:50;;;;;;;;;2.75;2.75;;;;;;;;4973903;28;45472;-63
2022/08/05 06:07:15;;;;;;;;;5.25;4.25;;;;;;;;4954646;28;45891;-63
2022/08/05 06:09:40;;;;;;;;;5.00;5.00;;;;;;;;4955272;28;45391;-62
2022/08/05 06:12:05;;;;;;;;;5.00;5.00;;;;;;;;4969245;28;45393;-63
2022/08/05 06:14:31;;;;;;;;;4.50;4.50;;;;;;;;4961906;28;45587;-63
2022/08/05 06:16:57;;;;;;;;;5.00;4.00;;;;;;;;4968508;28;46423;-63
2022/08/05 06:19:22;;;;;;;;;4.00;3.00;;;;;;;;4971806;28;45449;-63
2022/08/05 06:21:47;;;;;;;;;8.50;6.25;;;;;;;;4954180;28;45447;-63
2022/08/05 06:24:13;;;;;;;;;5.00;5.00;;;;;;;;4961226;28;45639;-64
2022/08/05 06:26:39;;;;;;;;;6.00;6.00;;;;;;;;4973143;28;46302;-63
2022/08/05 06:29:05;;;;;;;;;3.50;3.50;;;;;;;;4967578;28;45377;-64
2022/08/05 06:31:30;;;;;;;;;4.75;4.75;;;;;;;;4973492;28;45429;-64
2022/08/05 06:33:55;;;;;;;;;6.25;6.00;;;;;;;;4973471;28;45309;-63
2022/08/05 06:36:20;;;;;;;;;4.75;4.75;;;;;;;;4972245;28;46325;-63
2022/08/05 06:38:45;;;;;;;;;6.00;6.00;;;;;;;;4973108;28;45363;-64
2022/08/05 06:41:11;;;;;;;;;7.00;6.00;;;;;;;;4973373;28;45486;-63
2022/08/05 06:43:36;;;;;;;;;6.75;6.75;;;;;;;;4973156;28;45466;-63
2022/08/05 06:46:01;;;;;;;;;7.50;7.00;;;;;;;;4971744;28;47172;-65
2022/08/05 06:48:28;;;;;;;;;7.50;5.50;;;;;;;;4973212;28;45379;-61
2022/08/05 06:50:53;;;;;;;;;4.75;4.75;;;;;;;;4971827;28;45447;-62
2022/08/05 06:53:18;;;;;;;;;15.00;15.00;;;;;;;;4973018;28;45473;-64
2022/08/05 06:55:43;;;;;;;;;8.00;8.00;;;;;;;;4972697;28;45593;-63
2022/08/05 06:58:08;;;;;;;;;9.25;9.25;;;;;;;;4972873;28;45577;-62
2022/08/05 07:00:33;;;;;;;;;8.00;7.00;;;;;;;;4973701;28;45630;-64
2022/08/05 07:02:59;;;;;;;;;6.75;6.75;;;;;;;;4973275;28;45418;-64
2022/08/05 07:05:24;;;;;;;;;8.25;8.25;;;;;;;;4975799;28;45539;-65
2022/08/05 07:07:50;;;;;;;;;7.50;6.00;;;;;;;;4975654;28;45445;-63
2022/08/05 07:10:15;;;;;;;;;6.25;5.00;;;;;;;;4958451;28;45469;-64
2022/08/05 07:18:08;;;;;;;;;7.00;7.00;;;;;;;;4975414;28;45489;-65
2022/08/05 07:20:33;;;;;;;;;7.50;6.50;;;;;;;;4975785;28;45347;-62
2022/08/05 07:22:58;;;;;;;;;8.00;7.00;;;;;;;;4975743;28;45393;-63
2022/08/05 07:25:24;;;;;;;;;6.00;6.00;;;;;;;;4975690;28;45909;-62
2022/08/05 07:27:49;;;;;;;;;7.50;7.50;;;;;;;;4975835;28;45629;-62
2022/08/05 07:30:14;;;;;;;;;8.00;8.00;;;;;;;;4975900;28;45401;-63
2022/08/05 07:32:40;;;;;;;;;7.75;7.75;;;;;;;;4975642;28;45527;-61
2022/08/05 07:35:08;;;;;;;;;5.50;5.50;;;;;;;;4975653;28;46039;-63
2022/08/05 07:37:33;;;;;;;;;9.00;9.00;;;;;;;;4975562;28;45312;-64
2022/08/05 07:39:59;;;;;;;;;7.25;6.25;;;;;;;;4975824;28;45407;-63
2022/08/05 07:42:24;;;;;;;;;7.25;6.50;;;;;;;;4975262;28;45640;-63
2022/08/05 07:44:49;;;;;;;;;7.00;6.50;;;;;;;;4975354;28;46188;-64
2022/08/05 07:47:14;;;;;;;;;6.00;6.00;;;;;;;;4975512;28;45373;-61
2022/08/05 07:49:39;;;;;;;;;7.00;7.00;;;;;;;;4975571;28;45422;-64
2022/08/05 07:52:05;;;;;;;;;7.75;6.75;;;;;;;;4975576;28;45328;-65
2022/08/05 07:54:30;;;;;;;;;8.25;7.00;;;;;;;;4975500;28;46351;-65
2022/08/05 07:56:56;;;;;;;;;8.00;8.00;;;;;;;;4975321;28;45442;-62
2022/08/05 07:59:21;;;;;;;;;6.75;6.75;;;;;;;;4976048;28;45406;-63
2022/08/05 08:01:46;;;;;;;;;8.00;7.00;;;;;;;;4975268;28;45343;-65
2022/08/05 08:04:11;;;;;;;;;7.50;7.50;;;;;;;;4975220;28;45355;-64
2022/08/05 08:06:36;;;;;;;;;8.00;8.00;;;;;;;;4975212;28;45485;-64
2022/08/05 08:09:02;;;;;;;;;7.50;7.50;;;;;;;;4975379;28;45461;-62
2022/08/05 08:11:28;;;;;;;;;8.00;8.00;;;;;;;;4975021;28;45702;-65
2022/08/05 08:13:53;;;;;;;;;8.25;8.25;;;;;;;;4976671;27;45430;-62
2022/08/05 08:16:19;;;;;;;;;8.25;8.25;;;;;;;;4973553;28;45429;-62
2022/08/05 08:18:44;;;;;;;;;6.25;6.25;;;;;;;;4974943;28;45464;-65
2022/08/05 08:21:10;;;;;;;;;7.00;7.00;;;;;;;;4973932;28;45489;-65
2022/08/05 08:23:35;;;;;;;;;7.00;7.00;;;;;;;;4974966;28;46094;-63
2022/08/05 08:26:00;;;;;;;;;8.75;7.25;;;;;;;;4974968;28;45519;-62
2022/08/05 08:28:25;;;;;;;;;6.00;6.00;;;;;;;;4975103;28;45431;-62
2022/08/05 08:30:50;;;;;;;;;7.00;7.00;;;;;;;;4975248;28;45458;-65
2022/08/05 08:33:16;;;;;;;;;11.00;6.50;;;;;;;;4974633;28;46440;-65
2022/08/05 08:35:41;;;;;;;;;6.50;6.25;;;;;;;;4974878;28;45457;-62
2022/08/05 08:38:06;;;;;;;;;7.00;7.00;;;;;;;;4975143;28;45425;-62
2022/08/05 08:40:33;;;;;;;;;3.00;2.25;;;;;;;;4973474;28;45663;-64
2022/08/05 08:42:59;;;;;;;;;7.75;6.75;;;;;;;;4974800;28;45412;-65
2022/08/05 08:45:25;;;;;;;;;8.25;6.75;;;;;;;;4974794;28;45401;-64
2022/08/05 08:47:51;;;;;;;;;8.50;7.00;;;;;;;;4975004;28;45419;-64
2022/08/05 08:50:17;;;;;;;;;10.50;9.25;;;;;;;;4974821;28;45615;-63
2022/08/05 08:52:46;;;;;;;;;6.00;6.00;;;;;;;;4974643;28;46334;-65
2022/08/05 08:55:12;;;;;;;;;7.25;6.25;;;;;;;;4974773;28;45401;-65
2022/08/05 08:57:37;;;;;;;;;7.00;6.75;;;;;;;;4974787;28;45545;-62
2022/08/05 09:00:03;;;;;;;;;7.25;7.25;;;;;;;;4975260;28;45387;-63
2022/08/05 09:02:28;;;;;;;;;7.50;6.25;;;;;;;;4974455;28;46214;-65
2022/08/05 09:04:54;;;;;;;;;6.50;6.50;;;;;;;;4974523;28;45381;-64
2022/08/05 09:07:19;;;;;;;;;8.00;8.00;;;;;;;;4974630;28;45449;-63
2022/08/05 09:09:44;;;;;;;;;7.25;7.00;;;;;;;;4974601;28;45560;-63
2022/08/05 09:12:09;;;;;;;;;6.00;6.00;;;;;;;;4974351;28;46208;-62
2022/08/05 09:14:35;;;;;;;;;9.00;6.25;;;;;;;;4974608;28;45382;-65
2022/08/05 09:17:01;;;;;;;;;7.00;7.00;;;;;;;;4974288;28;45312;-66
2022/08/05 09:19:26;;;;;;;;;6.75;6.75;;;;;;;;4973311;28;45560;-64
2022/08/05 09:21:52;;;;;;;;;9.75;7.75;;;;;;;;4974345;28;46158;-62
2022/08/05 09:24:17;;;;;;;;;7.75;7.75;;;;;;;;4974395;28;45552;-65
2022/08/05 09:26:49;;;;;;;;;7.50;7.50;;;;;;;;4973957;28;45284;-64
2022/08/05 09:29:14;;;;;;;;;7.00;7.00;;;;;;;;4974330;28;45470;-64
2022/08/05 09:31:42;;;;;;;;;6.75;6.75;;;;;;;;4973966;28;45405;-64
2022/08/05 09:34:11;;;;;;;;;5.25;5.25;;;;;;;;4973988;28;45378;-66
2022/08/05 09:36:37;;;;;;;;;6.50;6.50;;;;;;;;4974166;28;45423;-64
2022/08/05 09:39:05;;;;;;;;;9.25;7.75;;;;;;;;4974275;28;45577;-64
2022/08/05 09:41:31;;;;;;;;;7.25;7.25;;;;;;;;4973774;28;45459;-63
2022/08/05 09:43:56;;;;;;;;;7.25;6.00;;;;;;;;4974039;28;45312;-62
2022/08/05 09:46:22;;;;;;;;;9.75;8.00;;;;;;;;4972760;28;45348;-64
2022/08/05 09:48:47;;;;;;;;;7.00;5.00;;;;;;;;4975704;27;45381;-62
2022/08/05 09:51:13;;;;;;;;;6.75;6.25;;;;;;;;4973928;28;45396;-63
2022/08/05 09:53:49;;;;;;;;;7.50;7.50;;;;;;;;4974353;28;45428;-63
2022/08/05 09:56:22;;;;;;;;;8.25;6.75;;;;;;;;4972860;28;45508;-65
2022/08/05 09:58:55;;;;;;;;;9.50;9.50;;;;;;;;4975052;28;45422;-64
2022/08/05 10:01:20;;;;;;;;;8.75;7.75;;;;;;;;4974403;28;45405;-64
2022/08/05 10:04:03;;;;;;;;;8.75;7.75;;;;;;;;4973160;27;45515;-66
2022/08/05 10:06:28;;;;;;;;;8.00;8.00;;;;;;;;4973824;28;45376;-63
2022/08/05 10:08:54;;;;;;;;;8.50;8.50;;;;;;;;4973937;28;45352;-63
2022/08/05 10:11:19;;;;;;;;;9.25;7.75;;;;;;;;4973579;28;45396;-64
2022/08/05 10:13:44;;;;;;;;;8.25;7.00;;;;;;;;4973816;28;45372;-63
2022/08/05 10:16:29;;;;;;;;;8.00;8.00;;;;;;;;4973594;28;45457;-63
2022/08/05 10:18:55;;;;;;;;;13.50;11.25;;;;;;;;4973554;28;45381;-64
2022/08/05 10:21:20;;;;;;;;;14.25;12.25;;;;;;;;4973487;28;46681;-65
2022/08/05 10:23:46;;;;;;;;;12.00;11.25;;;;;;;;4973699;28;45371;-64
2022/08/05 10:26:11;;;;;;;;;13.25;11.00;;;;;;;;4975316;28;45496;-65
2022/08/05 10:28:37;;;;;;;;;12.50;12.50;;;;;;;;4973527;28;45612;-65
2022/08/05 10:31:02;;;;;;;;;16.00;12.00;;;;;;;;4973003;28;45919;-63
2022/08/05 10:33:28;;;;;;;;;10.25;10.25;;;;;;;;4973132;28;45445;-64
2022/08/05 10:35:54;;;;;;;;;13.25;13.25;;;;;;;;4973255;28;45483;-65
2022/08/05 10:38:21;;;;;;;;;13.25;11.25;;;;;;;;4972159;28;45454;-64
2022/08/05 10:40:50;;;;;;;;;13.75;10.00;;;;;;;;4972635;28;45429;-63
2022/08/05 10:43:23;;;;;;;;;9.50;9.50;;;;;;;;4972982;28;45382;-65
2022/08/05 10:45:59;;;;;;;;;9.00;8.00;;;;;;;;4971961;28;45562;-66
2022/08/05 10:48:28;;;;;;;;;8.25;8.25;;;;;;;;4973300;28;45400;-64
2022/08/05 10:51:01;;;;;;;;;9.75;9.75;;;;;;;;4972937;28;45599;-63
2022/08/05 10:53:34;;;;;;;;;8.50;8.50;;;;;;;;4972732;28;45490;-63
2022/08/05 10:56:04;;;;;;;;;8.75;8.75;;;;;;;;4972570;28;45391;-65
2022/08/05 10:58:30;;;;;;;;;10.00;8.50;;;;;;;;4972679;28;45700;-65
2022/08/05 11:00:55;;;;;;;;;12.00;10.75;;;;;;;;4973113;28;46254;-65
2022/08/05 11:03:20;;;;;;;;;9.25;8.00;;;;;;;;4972665;28;45442;-65
2022/08/05 11:06:01;;;;;;;;;8.75;8.75;;;;;;;;4972974;28;45481;-64
2022/08/05 11:08:27;;;;;;;;;7.25;7.25;;;;;;;;4972015;28;45324;-64
2022/08/05 11:10:53;;;;;;;;;9.25;8.25;;;;;;;;4958101;28;45384;-64
2022/08/05 11:13:38;;;;;;;;;5.75;5.50;;;;;;;;4958903;28;45390;-64
2022/08/05 11:16:29;;;;;;;;;8.00;8.00;;;;;;;;4971899;28;45457;-62
2022/08/05 11:19:13;;;;;;;;;7.00;7.00;;;;;;;;4965586;28;45541;-64
2022/08/05 11:21:38;;;;;;;;;10.25;8.00;;;;;;;;4968838;28;45471;-66
2022/08/05 11:24:09;;;;;;;;;8.75;7.75;;;;;;;;4968301;28;45493;-65
2022/08/05 11:26:34;;;;;;;;;19.50;18.00;;;;;;;;4965788;28;45522;-65
2022/08/05 11:29:01;;;;;;;;;7.75;6.75;;;;;;;;4968810;28;45548;-66
2022/08/05 11:31:31;;;;;;;;;10.00;8.75;;;;;;;;4958698;28;46184;-67
2022/08/05 11:34:00;;;;;;;;;8.00;7.50;;;;;;;;5027243;28;45652;-66
2022/08/05 11:36:46;;;;;;;;;9.00;9.00;;;;;;;;4966322;28;45518;-65
2022/08/05 11:39:12;;;;;;;;;8.00;8.00;;;;;;;;4964515;28;45492;-65
2022/08/05 11:41:38;;;;;;;;;7.00;7.00;;;;;;;;4964638;28;46522;-66
2022/08/05 11:44:03;;;;;;;;;12.25;12.25;;;;;;;;4968622;28;45876;-66
2022/08/05 11:46:30;;;;;;;;;16.25;16.25;;;;;;;;4972623;28;45325;-66
2022/08/05 11:48:56;;;;;;;;;8.00;8.00;;;;;;;;4960277;28;45505;-66
2022/08/05 11:51:22;;;;;;;;;11.50;11.50;;;;;;;;4956178;28;45441;-66
2022/08/05 11:53:48;;;;;;;;;10.50;9.00;;;;;;;;4956207;28;45403;-66
2022/08/05 11:56:13;;;;;;;;;7.00;7.00;;;;;;;;4956472;28;45402;-66
2022/08/05 11:58:40;;;;;;;;;7.00;7.00;;;;;;;;4972972;28;45601;-66
2022/08/05 12:01:05;;;;;;;;;9.00;9.00;;;;;;;;4968907;27;46404;-66
2022/08/05 12:03:39;;;;;;;;;9.00;7.25;;;;;;;;5000858;28;45409;-67
2022/08/05 12:06:05;;;;;;;;;9.50;8.00;;;;;;;;4997757;28;45455;-66
2022/08/05 12:08:30;;;;;;;;;6.00;6.00;;;;;;;;4959312;28;45430;-65
2022/08/05 12:10:57;;;;;;;;;10.00;10.00;;;;;;;;4960337;28;45386;-64
2022/08/05 12:13:23;;;;;;;;;7.75;7.75;;;;;;;;4973979;28;45510;-63
2022/08/05 12:15:48;;;;;;;;;8.75;8.75;;;;;;;;4957538;28;45545;-64
2022/08/05 12:18:17;;;;;;;;;9.50;9.00;;;;;;;;4994797;27;45579;-64
2022/08/05 12:20:43;;;;;;;;;9.50;8.50;;;;;;;;4999118;27;46131;-63
2022/08/05 12:23:09;;;;;;;;;7.50;7.50;;;;;;;;4984076;28;45410;-63
2022/08/05 12:25:49;;;;;;;;;6.75;6.75;;;;;;;;5077312;27;45467;-67
2022/08/05 12:28:28;;;;;;;;;7.00;7.00;;;;;;;;5078615;28;45441;-66
2022/08/05 12:30:55;;;;;;;;;10.00;9.25;;;;;;;;5058846;27;46499;-66
2022/08/05 12:33:20;;;;;;;;;10.20;10.20;;;;;;;;4971859;28;45528;-64
2022/08/05 12:35:45;;;;;;;;;9.00;6.75;;;;;;;;4966100;28;45433;-65
2022/08/05 12:38:11;;;;;;;;;6.00;6.00;;;;;;;;4954391;28;45569;-66
2022/08/05 12:40:36;;;;;;;;;5.50;4.75;;;;;;;;4969847;28;46041;-63
2022/08/05 12:43:01;;;;;;;;;6.75;6.75;;;;;;;;4974891;28;45358;-65
2022/08/05 12:45:26;;;;;;;;;6.00;6.00;;;;;;;;4973791;28;45476;-64
2022/08/05 12:47:52;;;;;;;;;6.25;5.75;;;;;;;;4972657;28;45584;-65
2022/08/05 12:50:17;;;;;;;;;6.75;5.50;;;;;;;;4955416;28;45699;-66
2022/08/05 12:52:53;;;;;;;;;37.00;34.00;;;;;;;;4969096;28;45512;-63
2022/08/05 12:55:20;;;;;;;;;33.67;31.33;;;;;;;;5019211;28;45493;-63
2022/08/05 12:57:45;;;;;;;;;6.00;5.25;;;;;;;;5040366;27;45473;-64
2022/08/05 13:00:32;;;;;;;;;7.25;6.25;;;;;;;;4975621;28;46191;-67
2022/08/05 13:02:57;;;;;;;;;3.80;3.80;;;;;;;;4974104;28;45393;-64
2022/08/05 13:05:23;;;;;;;;;5.00;5.00;;;;;;;;4967559;28;45365;-65
2022/08/05 13:07:48;;;;;;;;;5.50;5.50;;;;;;;;4955263;28;45695;-64
2022/08/05 13:10:14;;;;;;;;;5.50;5.50;;;;;;;;4954765;28;47369;-66
2022/08/05 13:12:40;;;;;;;;;6.80;4.80;;;;;;;;4955412;28;45462;-65
2022/08/05 13:15:08;;;;;;;;;6.60;6.60;;;;;;;;4955332;28;45457;-63
2022/08/05 13:17:34;;;;;;;;;4.75;4.75;;;;;;;;4954887;28;45355;-60
2022/08/05 13:20:19;;;;;;;;;7.00;6.00;;;;;;;;4970352;28;45326;-60
2022/08/05 13:22:48;;;;;;;;;6.80;5.40;;;;;;;;4964520;28;45391;-63
2022/08/05 13:25:14;;;;;;;;;7.20;7.20;;;;;;;;4974753;28;45416;-66
2022/08/05 13:27:39;;;;;;;;;7.75;6.50;;;;;;;;4963924;28;45440;-64
2022/08/05 13:30:06;;;;;;;;;5.00;5.00;;;;;;;;4964983;28;45430;-65
2022/08/05 13:32:31;;;;;;;;;6.00;5.00;;;;;;;;4964378;28;45439;-64
2022/08/05 13:34:57;;;;;;;;;6.75;6.50;;;;;;;;4955383;28;45418;-65
2022/08/05 13:37:22;;;;;;;;;5.00;4.00;;;;;;;;4969376;28;45458;-65
2022/08/05 13:39:48;;;;;;;;;5.50;5.50;;;;;;;;5020677;28;46877;-65
2022/08/05 13:42:14;;;;;;;;;7.00;5.20;;;;;;;;5077053;27;45377;-64
2022/08/05 13:44:40;;;;;;;;;6.00;6.00;;;;;;;;5077167;27;45375;-66
2022/08/05 13:47:05;;;;;;;;;7.50;6.50;;;;;;;;5077124;28;45382;-65
2022/08/05 13:49:30;;;;;;;;;5.00;5.00;;;;;;;;4992043;28;45517;-65
2022/08/05 13:51:55;;;;;;;;;5.75;5.75;;;;;;;;4964737;28;45504;-65
2022/08/05 13:54:21;;;;;;;;;5.50;5.50;;;;;;;;4969142;28;45423;-65
2022/08/05 13:56:46;;;;;;;;;5.75;5.00;;;;;;;;4970983;28;45297;-67
2022/08/05 13:59:11;;;;;;;;;5.00;5.00;;;;;;;;4957422;28;46179;-64
2022/08/05 14:01:37;;;;;;;;;5.00;5.00;;;;;;;;4974766;28;45367;-66
2022/08/05 14:06:45;;;;;;;;;7.50;4.00;;;;;;;;4965696;28;45390;-64
2022/08/05 14:09:11;;;;;;;;;5.00;5.00;;;;;;;;4965846;28;45557;-65
2022/08/05 14:11:39;;;;;;;;;3.25;3.25;;;;;;;;4964926;28;45350;-66
2022/08/05 14:14:05;;;;;;;;;6.60;4.00;;;;;;;;4966238;28;45485;-65
2022/08/05 14:16:30;;;;;;;;;5.25;5.25;;;;;;;;4957165;28;45467;-65
2022/08/05 14:18:55;;;;;;;;;5.00;5.00;;;;;;;;4971814;28;45445;-66
2022/08/05 14:21:20;;;;;;;;;5.00;5.00;;;;;;;;4966099;28;45628;-66
2022/08/05 14:23:46;;;;;;;;;4.00;4.00;;;;;;;;4954545;28;45517;-65
2022/08/05 14:26:11;;;;;;;;;5.75;5.00;;;;;;;;4958127;28;45548;-66
2022/08/05 14:28:36;;;;;;;;;5.50;4.25;;;;;;;;4964797;28;45482;-65
2022/08/05 14:31:01;;;;;;;;;3.75;3.75;;;;;;;;4953797;28;45488;-63
2022/08/05 14:33:27;;;;;;;;;4.75;4.75;;;;;;;;4969912;28;45430;-65
2022/08/05 14:35:52;;;;;;;;;3.50;3.50;;;;;;;;4973937;28;45548;-64
2022/08/05 14:38:18;;;;;;;;;6.00;6.00;;;;;;;;4973726;28;45408;-65
2022/08/05 14:40:44;;;;;;;;;6.00;5.00;;;;;;;;4972669;28;45367;-63
2022/08/05 14:43:09;;;;;;;;;5.25;4.25;;;;;;;;4965453;28;45543;-65
2022/08/05 14:45:34;;;;;;;;;4.00;4.00;;;;;;;;4968560;28;45337;-65